Air Resources Laboratory banner image
Air Resources Laboratory web site National Oceanic and Atmospheric Administration (NOAA)

sc metar


KAND 161956Z AUTO 23005KT 10SM CLR 09/M04 A3023 RMK AO2 SLP239 T00941039=
KCAE 161956Z VRB03KT 10SM BKN240 12/M03 A3024 RMK AO2 SLP239 T01221033 $=
KCEU 161954Z AUTO VRB04KT 10SM CLR 09/M04 A3023 RMK AO2 SLP238 T00891044=
KCHS 161956Z 16009KT 10SM SCT200 12/02 A3025 RMK AO2 SLP243 T01220017=
KCRE 161953Z 19008KT 10SM CLR 09/M01 A3024 RMK AO1 SLP240 T00941011=
KCUB 161953Z AUTO VRB03KT 10SM CLR 11/M04 A3025 RMK AO2 SLP244 T01111039=
KFLO 161953Z VRB03KT 10SM CLR 11/M04 A3024 RMK AO2 SLP240 T01061039=
KGMU 161953Z 24005KT 10SM CLR 20/M05 A3021 RMK AO2 RAB00E11 SLP232 P0000
 T02001050=
KGRD 161956Z AUTO 21004KT 10SM CLR 10/M04 A3024 RMK AO2 SLP243 T01001044=
KGSP 161953Z 22007KT 10SM CLR 09/M06 A3021 RMK AO2 SLP234 T00941061 $=
KMMT 161956Z 20004KT 10SM BKN250 11/M04 A3024 RMK AO2A SLP244 T01141043 $=
KMYR 161956Z 19010KT 10SM CLR 09/M01 A3026 RMK AO2 SLP247 T00941011=
KNBC 161956Z AUTO VRB04KT 10SM CLR 12/02 A3026 RMK AO2 SLP247 T01220022=
KOGB 161953Z AUTO 26004KT 10SM CLR 11/M03 A3025 RMK AO2 SLP243 T01111033=
KSPA 161955Z AUTO 25004KT 10SM CLR 08/M06 A3021 RMK AO2=
KSSC 161956Z AUTO 22007KT 10SM CLR 12/M04 A3022 RMK AO2 SLP236 T01181040=
KUDG 161956Z AUTO 21006KT 10SM CLR 11/M03 A3024 RMK AO2 SLP247 T01061028=
KUZA 161954Z AUTO 24005KT 10SM CLR 10/M04 A3021 RMK AO2 SLP238 T01001044=